createdAt,value
2023-03-08T00:01:53.700Z,5.38
2023-03-08T00:04:42.133Z,4.37
2023-03-08T00:07:30.645Z,4.68
2023-03-08T00:10:19.397Z,3.90
2023-03-08T00:13:09.291Z,3.58
2023-03-08T00:16:01.065Z,3.97
2023-03-08T00:18:49.765Z,3.97
2023-03-08T00:21:38.259Z,3.53
2023-03-08T00:24:26.792Z,3.27
2023-03-08T00:27:15.221Z,4.38
2023-03-08T00:30:06.119Z,3.90
2023-03-08T00:32:54.881Z,3.70
2023-03-08T00:35:43.316Z,4.20
2023-03-08T00:38:33.152Z,2.97
2023-03-08T00:41:21.706Z,3.83
2023-03-08T00:44:10.177Z,3.53
2023-03-08T00:47:00.138Z,3.80
2023-03-08T00:49:48.639Z,3.40
2023-03-08T00:52:37.021Z,3.70
2023-03-08T00:55:25.470Z,3.28
2023-03-08T00:58:13.890Z,3.50
2023-03-08T01:01:02.458Z,4.13
2023-03-08T01:03:52.444Z,4.20
2023-03-08T01:06:43.198Z,4.05
2023-03-08T01:09:31.619Z,3.75
2023-03-08T01:12:22.679Z,3.83
2023-03-08T01:15:11.844Z,3.67
2023-03-08T01:18:00.289Z,3.90
2023-03-08T01:20:58.261Z,4.10
2023-03-08T01:23:46.726Z,3.63
2023-03-08T01:26:35.251Z,3.33
2023-03-08T01:29:23.692Z,3.80
2023-03-08T01:32:12.452Z,3.40
2023-03-08T01:35:04.438Z,4.00
2023-03-08T01:37:54.528Z,3.35
2023-03-08T01:40:42.977Z,3.45
2023-03-08T01:43:33.451Z,3.40
2023-03-08T01:46:27.625Z,3.60
2023-03-08T01:49:19.307Z,3.63
2023-03-08T01:52:12.476Z,3.08
2023-03-08T01:55:04.655Z,3.70
2023-03-08T01:57:55.662Z,3.65
2023-03-08T02:00:44.232Z,3.60
2023-03-08T02:03:32.726Z,2.97
2023-03-08T02:06:21.920Z,2.92
2023-03-08T02:09:10.645Z,3.88
2023-03-08T02:12:03.987Z,3.20
2023-03-08T02:14:52.704Z,3.17
2023-03-08T02:17:42.691Z,3.45
2023-03-08T02:20:33.068Z,3.75
2023-03-08T02:23:24.614Z,3.25
2023-03-08T02:26:13.193Z,3.28
2023-03-08T02:29:01.582Z,3.58
2023-03-08T02:31:50.006Z,3.58
2023-03-08T02:34:38.562Z,3.28
2023-03-08T02:37:27.007Z,3.10
2023-03-08T02:40:17.220Z,2.60
2023-03-08T02:43:06.127Z,2.70
2023-03-08T02:45:54.564Z,2.85
2023-03-08T02:48:43.125Z,2.33
2023-03-08T02:51:31.730Z,3.00
2023-03-08T02:54:20.149Z,3.10
2023-03-08T02:57:09.967Z,2.95
2023-03-08T02:59:58.404Z,3.63
2023-03-08T03:02:46.873Z,3.47
2023-03-08T03:05:35.358Z,3.50
2023-03-08T03:08:23.768Z,3.40
2023-03-08T03:11:13.685Z,3.57
2023-03-08T03:14:03.559Z,3.60
2023-03-08T03:16:52.038Z,3.95
2023-03-08T03:19:40.468Z,2.97
2023-03-08T03:22:29.549Z,3.88
2023-03-08T03:25:18.121Z,3.80
2023-03-08T03:28:06.737Z,3.45
2023-03-08T03:30:56.637Z,3.58
2023-03-08T03:33:45.291Z,3.40
2023-03-08T03:36:34.444Z,3.30
2023-03-08T03:39:23.376Z,3.80
2023-03-08T03:42:11.953Z,3.22
2023-03-08T03:45:00.433Z,3.13
2023-03-08T03:47:50.259Z,3.55
2023-03-08T03:50:38.679Z,2.80
2023-03-08T03:53:28.463Z,3.20
2023-03-08T03:56:19.102Z,2.90
2023-03-08T03:59:07.535Z,2.78
2023-03-08T04:01:55.930Z,3.05
2023-03-08T04:04:45.749Z,2.70
2023-03-08T04:07:34.563Z,2.80
2023-03-08T04:10:23.089Z,2.67
2023-03-08T04:13:12.741Z,2.63
2023-03-08T04:16:01.254Z,3.17
2023-03-08T04:18:53.627Z,3.20
2023-03-08T04:21:43.423Z,3.40
2023-03-08T04:24:32.026Z,3.55
2023-03-08T04:27:20.468Z,3.85
2023-03-08T04:30:10.113Z,3.95
2023-03-08T04:32:58.538Z,4.05
2023-03-08T04:35:46.997Z,3.22
2023-03-08T04:38:37.348Z,3.30
2023-03-08T04:41:26.035Z,3.58
2023-03-08T04:44:14.458Z,3.38
2023-03-08T04:47:02.983Z,2.90
2023-03-08T04:49:51.395Z,3.55
2023-03-08T04:52:40.053Z,3.08
2023-03-08T04:55:29.849Z,2.50
2023-03-08T04:58:18.719Z,3.70
2023-03-08T05:01:11.492Z,3.00
2023-03-08T05:03:59.950Z,3.15
2023-03-08T05:06:48.393Z,3.33
2023-03-08T05:09:37.108Z,3.58
2023-03-08T05:12:26.935Z,2.95
2023-03-08T05:15:15.390Z,3.30
2023-03-08T05:18:03.833Z,3.50
2023-03-08T05:20:56.543Z,2.95
2023-03-08T05:23:45.460Z,3.37
2023-03-08T05:26:33.935Z,3.20
2023-03-08T05:29:23.912Z,2.70
2023-03-08T05:32:12.659Z,3.83
2023-03-08T05:35:01.177Z,3.00
2023-03-08T05:37:49.625Z,3.40
2023-03-08T05:40:39.922Z,2.63
2023-03-08T05:43:28.840Z,2.70
2023-03-08T05:46:20.819Z,2.75
2023-03-08T05:49:09.316Z,3.25
2023-03-08T05:51:59.711Z,2.80
2023-03-08T05:54:48.107Z,2.55
2023-03-08T05:57:37.068Z,2.60
2023-03-08T06:00:26.504Z,2.97
2023-03-08T06:03:16.327Z,2.53
2023-03-08T06:06:05.170Z,2.50
2023-03-08T06:08:54.068Z,2.15
2023-03-08T06:11:42.476Z,2.33
2023-03-08T06:14:30.983Z,2.65
2023-03-08T06:17:19.391Z,2.40
2023-03-08T06:20:11.612Z,2.30
2023-03-08T06:23:00.084Z,2.33
2023-03-08T06:25:48.523Z,2.38
2023-03-08T06:28:37.482Z,2.30
2023-03-08T06:31:25.978Z,2.70
2023-03-08T06:34:14.382Z,2.83
2023-03-08T06:37:04.190Z,2.47
2023-03-08T06:39:52.595Z,2.70
2023-03-08T06:42:42.033Z,2.83
2023-03-08T06:45:30.549Z,3.05
2023-03-08T06:48:19.331Z,2.80
2023-03-08T06:51:08.065Z,2.90
2023-03-08T06:53:57.869Z,2.78
2023-03-08T06:56:47.164Z,2.38
2023-03-08T06:59:35.651Z,2.65
2023-03-08T07:02:24.104Z,2.35
2023-03-08T07:05:12.586Z,2.15
2023-03-08T07:08:01.151Z,2.58
2023-03-08T07:10:50.923Z,2.10
2023-03-08T07:13:39.781Z,2.75
2023-03-08T07:16:28.515Z,2.60
2023-03-08T07:19:16.944Z,2.78
2023-03-08T07:22:05.709Z,2.53
2023-03-08T07:24:54.157Z,3.70
2023-03-08T07:27:44.198Z,3.80
2023-03-08T07:30:32.659Z,2.78
2023-03-08T07:33:22.154Z,4.68
2023-03-08T07:36:10.956Z,4.57
2023-03-08T07:38:59.422Z,4.20
2023-03-08T07:41:47.885Z,4.25
2023-03-08T07:44:38.191Z,3.78
2023-03-08T07:47:26.635Z,6.10
2023-03-08T07:50:15.096Z,7.90
2023-03-08T07:53:04.436Z,7.13
2023-03-08T07:55:52.922Z,10.07
2023-03-08T07:58:41.354Z,9.13
2023-03-08T08:01:33.025Z,7.82
2023-03-08T08:04:23.204Z,10.93
2023-03-08T08:07:13.913Z,10.35
2023-03-08T08:10:02.384Z,10.20
2023-03-08T08:12:50.822Z,9.90
2023-03-08T08:15:39.292Z,11.98
2023-03-08T08:18:29.566Z,10.50
2023-03-08T08:21:18.115Z,10.20
2023-03-08T08:24:07.341Z,10.45
2023-03-08T08:26:56.047Z,11.38
2023-03-08T08:29:46.321Z,12.37
2023-03-08T08:32:35.487Z,12.27
2023-03-08T08:35:37.201Z,9.52
2023-03-08T08:38:30.755Z,11.95
2023-03-08T08:41:21.214Z,11.40
2023-03-08T08:44:09.709Z,9.50
2023-03-08T08:46:58.140Z,10.95
2023-03-08T08:49:46.668Z,8.85
2023-03-08T08:52:36.622Z,9.18
2023-03-08T08:55:25.134Z,10.77
2023-03-08T08:58:14.062Z,11.90
2023-03-08T09:01:02.598Z,9.68
2023-03-08T09:03:51.410Z,10.52
2023-03-08T09:06:40.169Z,10.98
2023-03-08T09:09:30.088Z,11.95
2023-03-08T09:12:18.552Z,11.82
2023-03-08T09:15:09.595Z,10.20
2023-03-08T09:17:58.183Z,12.85
2023-03-08T09:20:46.607Z,11.10
2023-03-08T09:23:35.062Z,11.55
2023-03-08T09:26:24.914Z,11.43
2023-03-08T09:29:13.715Z,10.77
2023-03-08T09:32:02.273Z,14.55
2023-03-08T09:34:51.310Z,13.05
2023-03-08T09:37:39.821Z,11.87
2023-03-08T09:40:29.196Z,14.13
2023-03-08T09:43:26.053Z,14.00
2023-03-08T09:46:16.217Z,12.75
2023-03-08T09:49:08.523Z,11.43
2023-03-08T09:52:04.992Z,15.85
2023-03-08T09:54:54.867Z,11.65
2023-03-08T09:57:53.017Z,11.00
2023-03-08T10:00:43.095Z,10.38
2023-03-08T10:03:55.104Z,11.67
2023-03-08T10:06:50.992Z,10.93
2023-03-08T10:09:42.031Z,14.70
2023-03-08T10:12:38.668Z,12.50
2023-03-08T10:15:29.297Z,12.23
2023-03-08T10:18:25.286Z,12.05
2023-03-08T10:21:18.256Z,10.80
2023-03-08T10:24:16.304Z,10.85
2023-03-08T10:27:21.864Z,19.27
2023-03-08T10:30:16.830Z,12.40
2023-03-08T10:33:09.189Z,10.30
2023-03-08T10:36:02.324Z,10.15
2023-03-08T10:39:06.151Z,11.98
2023-03-08T10:41:56.796Z,11.13
2023-03-08T10:44:47.257Z,10.57
2023-03-08T10:47:37.299Z,11.63
2023-03-08T10:50:27.924Z,9.55
2023-03-08T10:53:22.774Z,11.80
2023-03-08T10:56:25.032Z,9.38
2023-03-08T10:59:21.312Z,9.68
2023-03-08T11:02:22.512Z,9.57
2023-03-08T11:05:20.147Z,9.32
2023-03-08T11:08:20.611Z,9.77
2023-03-08T11:11:11.630Z,8.38
2023-03-08T11:14:00.237Z,9.82
2023-03-08T11:17:03.815Z,10.45
2023-03-08T11:20:16.110Z,10.07
2023-03-08T11:23:15.372Z,9.50
2023-03-08T11:26:16.641Z,7.97
2023-03-08T11:29:16.946Z,7.47
2023-03-08T11:32:18.246Z,10.20
2023-03-08T11:35:19.654Z,7.95
2023-03-08T11:38:15.048Z,7.40
2023-03-08T11:41:14.686Z,8.13
2023-03-08T11:44:31.278Z,9.17
2023-03-08T11:47:45.567Z,10.73
2023-03-08T11:50:38.140Z,10.98
2023-03-08T11:53:36.776Z,7.38
2023-03-08T11:56:42.444Z,8.83
2023-03-08T11:59:34.709Z,7.20
2023-03-08T12:02:26.193Z,8.00
2023-03-08T12:05:24.900Z,8.20
2023-03-08T12:08:19.775Z,9.80
2023-03-08T12:11:14.819Z,8.90
2023-03-08T12:14:13.597Z,6.80
2023-03-08T12:17:08.970Z,9.45
2023-03-08T12:19:57.514Z,6.90
2023-03-08T12:22:48.505Z,9.43
2023-03-08T12:25:41.585Z,7.60
2023-03-08T12:28:35.798Z,6.25
2023-03-08T12:31:29.830Z,7.70
2023-03-08T12:34:28.728Z,7.28
2023-03-08T12:37:21.763Z,7.30
2023-03-08T12:40:25.555Z,7.20
2023-03-08T12:43:16.314Z,7.57
2023-03-08T12:46:07.586Z,6.40
2023-03-08T12:48:58.182Z,8.13
2023-03-08T12:51:57.307Z,8.90
2023-03-08T12:54:46.838Z,7.70
2023-03-08T12:57:38.141Z,6.65
2023-03-08T13:00:28.378Z,7.32
2023-03-08T13:03:28.336Z,7.93
2023-03-08T13:06:32.645Z,10.70
2023-03-08T13:09:24.523Z,8.45
2023-03-08T13:12:19.541Z,7.32
2023-03-08T13:15:23.201Z,6.53
2023-03-08T13:18:16.962Z,8.68
2023-03-08T13:21:24.082Z,10.23
2023-03-08T13:24:20.565Z,6.27
2023-03-08T13:27:17.914Z,6.45
2023-03-08T13:30:18.634Z,8.05
2023-03-08T13:33:08.928Z,10.10
2023-03-08T13:35:59.527Z,10.07
2023-03-08T13:38:58.601Z,8.20
2023-03-08T13:41:48.807Z,6.15
2023-03-08T13:44:37.579Z,7.63
2023-03-08T13:47:28.015Z,7.72
2023-03-08T13:50:24.297Z,6.45
2023-03-08T13:53:17.694Z,2.83
2023-03-08T13:56:09.277Z,2.10
2023-03-08T13:58:59.938Z,1.90
2023-03-08T14:01:49.772Z,2.00
2023-03-08T14:04:44.189Z,1.75
2023-03-08T14:07:33.172Z,1.97
2023-03-08T14:10:24.468Z,1.77
2023-03-08T14:13:18.687Z,1.65
2023-03-08T14:16:08.785Z,2.05
2023-03-08T14:18:58.148Z,2.10
2023-03-08T14:21:50.760Z,2.05
2023-03-08T14:24:39.870Z,1.50
2023-03-08T14:27:39.012Z,1.80
2023-03-08T14:30:30.857Z,2.38
2023-03-08T14:33:30.646Z,1.92
2023-03-08T14:36:25.697Z,1.80
2023-03-08T14:39:19.272Z,1.70
2023-03-08T14:42:17.441Z,2.03
2023-03-08T14:45:17.782Z,2.10
2023-03-08T14:48:25.075Z,1.60
2023-03-08T14:51:29.181Z,1.48
2023-03-08T14:54:24.411Z,2.05
2023-03-08T14:57:18.974Z,1.77
2023-03-08T15:00:14.185Z,1.85
2023-03-08T15:03:03.128Z,2.40
2023-03-08T15:05:53.633Z,1.98
2023-03-08T15:08:42.195Z,1.80
2023-03-08T15:11:31.675Z,1.70
2023-03-08T15:14:20.230Z,1.42
2023-03-08T15:17:08.729Z,1.73
2023-03-08T15:19:57.355Z,1.38
2023-03-08T15:22:49.319Z,1.85
2023-03-08T15:25:39.216Z,1.83
2023-03-08T15:28:27.981Z,1.90
2023-03-08T15:31:16.453Z,1.80
2023-03-08T15:34:04.881Z,1.70
2023-03-08T15:36:54.724Z,1.67
2023-03-08T15:39:44.599Z,1.75
2023-03-08T15:42:33.132Z,1.75
2023-03-08T15:45:21.656Z,1.88
2023-03-08T15:48:19.890Z,1.85
2023-03-08T15:51:12.942Z,1.88
2023-03-08T15:54:01.696Z,1.83
2023-03-08T15:56:51.539Z,1.65
2023-03-08T15:59:40.028Z,1.30
2023-03-08T16:02:28.465Z,1.80
2023-03-08T16:05:19.669Z,1.60
2023-03-08T16:08:08.171Z,1.50
2023-03-08T16:10:56.909Z,1.65
2023-03-08T16:13:48.902Z,1.92
2023-03-08T16:16:45.288Z,1.60
2023-03-08T16:19:34.818Z,1.75
2023-03-08T16:22:23.714Z,1.50
2023-03-08T16:25:12.212Z,1.30
2023-03-08T16:28:00.667Z,1.30
2023-03-08T16:30:50.500Z,1.63
2023-03-08T16:33:39.702Z,1.60
2023-03-08T16:36:28.152Z,1.48
2023-03-08T16:39:16.661Z,1.60
2023-03-08T16:42:05.283Z,1.40
2023-03-08T16:44:54.995Z,1.35
2023-03-08T16:47:44.953Z,1.70
2023-03-08T16:50:33.435Z,1.88
2023-03-08T16:53:21.967Z,1.33
2023-03-08T16:56:10.929Z,1.17
2023-03-08T16:59:00.927Z,1.20
2023-03-08T17:01:50.069Z,1.00
2023-03-08T17:04:39.893Z,1.10
2023-03-08T17:07:28.337Z,1.23
2023-03-08T17:10:16.956Z,1.50
2023-03-08T17:13:06.051Z,1.10
2023-03-08T17:15:54.609Z,0.90
2023-03-08T17:18:43.161Z,1.00
2023-03-08T17:21:38.048Z,1.17
2023-03-08T17:24:28.207Z,1.25
2023-03-08T17:27:16.876Z,1.20
2023-03-08T17:30:06.396Z,0.98
2023-03-08T17:32:54.927Z,0.93
2023-03-08T17:35:43.897Z,0.77
2023-03-08T17:38:34.635Z,0.95
2023-03-08T17:41:23.875Z,1.13
2023-03-08T17:44:12.463Z,1.15
2023-03-08T17:47:00.967Z,1.17
2023-03-08T17:49:49.768Z,0.95
2023-03-08T17:52:38.180Z,1.10
2023-03-08T17:55:28.387Z,1.20
2023-03-08T17:58:16.862Z,1.00
2023-03-08T18:01:10.426Z,1.00
2023-03-08T18:03:59.533Z,1.20
2023-03-08T18:06:47.965Z,1.20
2023-03-08T18:09:36.411Z,1.00
2023-03-08T18:12:26.279Z,1.52
2023-03-08T18:15:14.764Z,1.00
2023-03-08T18:18:03.257Z,0.98
2023-03-08T18:20:52.892Z,1.10
2023-03-08T18:23:42.744Z,0.95
2023-03-08T18:26:31.265Z,1.00
2023-03-08T18:29:22.008Z,1.00
2023-03-08T18:32:11.063Z,0.77
2023-03-08T18:34:59.661Z,0.80
2023-03-08T18:37:48.184Z,1.02
2023-03-08T18:40:36.664Z,1.10
2023-03-08T18:43:25.820Z,1.10
2023-03-08T18:46:16.016Z,1.20
2023-03-08T18:49:06.882Z,0.80
2023-03-08T18:51:55.388Z,1.13
2023-03-08T18:54:43.866Z,1.33
2023-03-08T18:57:32.368Z,1.15
2023-03-08T19:00:21.455Z,1.30
2023-03-08T19:03:11.265Z,1.20
2023-03-08T19:06:03.356Z,0.93
2023-03-08T19:08:51.870Z,1.20
2023-03-08T19:11:40.720Z,1.30
2023-03-08T19:14:29.173Z,1.38
2023-03-08T19:17:17.654Z,1.77
2023-03-08T19:20:08.710Z,1.30
2023-03-08T19:22:57.261Z,1.30
2023-03-08T19:25:59.535Z,1.10
2023-03-08T19:28:48.012Z,1.20
2023-03-08T19:31:38.517Z,1.10
2023-03-08T19:34:28.421Z,3.83
2023-03-08T19:37:18.625Z,1.33
2023-03-08T19:40:09.445Z,1.70
2023-03-08T19:42:57.897Z,1.65
2023-03-08T19:45:49.999Z,1.97
2023-03-08T19:48:38.711Z,3.40
2023-03-08T19:51:27.169Z,1.90
2023-03-08T19:54:17.604Z,2.25
2023-03-08T19:57:06.810Z,1.03
2023-03-08T19:59:57.625Z,2.70
2023-03-08T20:02:46.830Z,1.90
2023-03-08T20:05:41.649Z,1.23
2023-03-08T20:08:30.595Z,1.65
2023-03-08T20:11:20.781Z,1.90
2023-03-08T20:14:09.413Z,2.43
2023-03-08T20:16:59.198Z,3.53
2023-03-08T20:19:47.803Z,3.28
2023-03-08T20:22:36.299Z,2.75
2023-03-08T20:25:24.860Z,3.40
2023-03-08T20:28:14.738Z,3.53
2023-03-08T20:31:09.516Z,2.78
2023-03-08T20:33:58.470Z,3.70
2023-03-08T20:36:47.477Z,3.83
2023-03-08T20:39:36.205Z,3.70
2023-03-08T20:42:24.808Z,3.10
2023-03-08T20:45:15.066Z,3.08
2023-03-08T20:48:03.542Z,4.10
2023-03-08T20:50:58.451Z,3.60
2023-03-08T20:53:50.192Z,3.38
2023-03-08T20:56:38.662Z,4.55
2023-03-08T20:59:28.153Z,3.80
2023-03-08T21:02:18.304Z,3.90
2023-03-08T21:05:07.731Z,3.97
2023-03-08T21:07:56.209Z,8.00
2023-03-08T21:10:44.640Z,6.60
2023-03-08T21:13:33.257Z,5.88
2023-03-08T21:16:23.494Z,3.92
2023-03-08T21:19:13.370Z,6.10
2023-03-08T21:22:03.364Z,4.82
2023-03-08T21:24:51.830Z,3.75
2023-03-08T21:27:40.363Z,5.60
2023-03-08T21:30:30.693Z,3.95
2023-03-08T21:33:19.162Z,4.45
2023-03-08T21:36:09.836Z,3.63
2023-03-08T21:38:59.631Z,5.20
2023-03-08T21:41:50.518Z,4.43
2023-03-08T21:44:39.115Z,4.03
2023-03-08T21:47:27.572Z,4.57
2023-03-08T21:50:16.086Z,4.57
2023-03-08T21:53:05.979Z,5.40
2023-03-08T21:55:54.496Z,4.95
2023-03-08T21:58:43.182Z,3.92
2023-03-08T22:01:32.935Z,4.53
2023-03-08T22:04:21.482Z,4.28
2023-03-08T22:07:09.933Z,4.20
2023-03-08T22:09:59.753Z,4.13
2023-03-08T22:12:48.566Z,4.35
2023-03-08T22:15:37.012Z,4.00
2023-03-08T22:18:25.784Z,4.53
2023-03-08T22:21:14.380Z,4.45
2023-03-08T22:24:03.471Z,4.63
2023-03-08T22:26:53.274Z,4.37
2023-03-08T22:29:41.907Z,4.40
2023-03-08T22:32:30.442Z,5.30
2023-03-08T22:35:19.036Z,3.80
2023-03-08T22:38:07.461Z,3.88
2023-03-08T22:40:55.947Z,3.73
2023-03-08T22:43:46.136Z,6.35
2023-03-08T22:46:34.645Z,4.65
2023-03-08T22:49:23.108Z,6.28
2023-03-08T22:52:11.704Z,5.22
2023-03-08T22:55:00.197Z,4.93
2023-03-08T22:57:48.787Z,4.95
2023-03-08T23:00:38.724Z,3.83
2023-03-08T23:03:27.296Z,5.25
2023-03-08T23:06:16.252Z,4.60
2023-03-08T23:09:07.143Z,5.00
2023-03-08T23:11:55.557Z,4.35
2023-03-08T23:14:45.350Z,4.43
2023-03-08T23:17:35.572Z,5.45
2023-03-08T23:20:24.071Z,5.28
2023-03-08T23:23:12.565Z,3.95
2023-03-08T23:26:00.966Z,4.10
2023-03-08T23:28:49.634Z,4.05
2023-03-08T23:31:40.637Z,4.70
2023-03-08T23:34:30.621Z,4.63
2023-03-08T23:37:19.084Z,3.75
2023-03-08T23:40:10.866Z,3.03
2023-03-08T23:42:59.681Z,3.50
2023-03-08T23:45:48.172Z,3.10
2023-03-08T23:48:37.356Z,3.05
2023-03-08T23:51:29.336Z,3.05
2023-03-08T23:54:17.807Z,3.58
2023-03-08T23:57:06.304Z,4.80
2023-03-08T23:59:54.807Z,4.97
